Time;durP1;ratioP1;P1;durP2;ratioP2;P2;SDS_P1;SDS_P2;PMS_P1;PMS_P2;Temp;Humidity;BMP_temperature;BMP_pressure;BME280_temperature;BME280_humidity;BME280_pressure;Samples;Min_cycle;Max_cycle;Signal;HPM_P1;HPM_P2
2023/08/04 07:20:08;;;;;;;9.40;8.90;;;18.90;27.50;;;;;;6249121;22;1320661;-77
2023/08/04 07:22:33;;;;;;;9.03;8.60;;;18.90;27.00;;;;;;6280801;22;20166;-77
2023/08/04 07:24:59;;;;;;;9.67;9.17;;;19.00;27.10;;;;;;6271113;22;20386;-77
2023/08/04 07:27:24;;;;;;;9.37;9.00;;;19.00;27.00;;;;;;6223166;23;20144;-77
2023/08/04 07:29:50;;;;;;;10.20;9.77;;;19.00;27.20;;;;;;6249502;23;20147;-77
2023/08/04 07:32:15;;;;;;;9.70;9.30;;;19.10;26.80;;;;;;6250032;23;20156;-77
2023/08/04 07:34:41;;;;;;;9.27;8.87;;;19.00;26.60;;;;;;6249989;22;20171;-76
2023/08/04 07:37:06;;;;;;;9.53;9.13;;;18.90;26.90;;;;;;6250462;23;20583;-76
2023/08/04 07:39:32;;;;;;;9.90;9.40;;;18.90;27.00;;;;;;6249953;23;20147;-77
2023/08/04 07:41:58;;;;;;;10.13;9.70;;;18.90;27.30;;;;;;6250390;23;20162;-77
2023/08/04 07:44:23;;;;;;;10.30;9.90;;;19.00;27.20;;;;;;6250834;22;20186;-77
2023/08/04 07:46:49;;;;;;;10.50;10.10;;;19.10;26.90;;;;;;6251036;23;20378;-77
2023/08/04 07:49:14;;;;;;;9.80;9.40;;;19.20;27.10;;;;;;6224222;23;20245;-77
2023/08/04 07:51:40;;;;;;;10.73;10.20;;;19.30;26.90;;;;;;6224783;23;20167;-77
2023/08/04 07:54:06;;;;;;;9.90;9.40;;;19.30;27.00;;;;;;6251140;23;20147;-77
2023/08/04 07:56:34;;;;;;;9.70;9.30;;;19.40;26.70;;;;;;6223526;23;20178;-77
2023/08/04 07:59:00;;;;;;;9.70;9.30;;;19.50;26.00;;;;;;6249734;23;20147;-77
2023/08/04 08:01:26;;;;;;;9.83;9.43;;;19.40;25.80;;;;;;6222873;23;20406;-77
2023/08/04 08:03:51;;;;;;;9.63;9.23;;;19.40;26.10;;;;;;6249850;23;20877;-76
2023/08/04 08:06:17;;;;;;;10.13;9.77;;;19.40;25.90;;;;;;6222563;23;20178;-77
2023/08/04 08:08:46;;;;;;;9.97;9.47;;;19.50;26.20;;;;;;6222997;23;20178;-76
2023/08/04 08:11:11;;;;;;;10.20;9.60;;;19.60;25.90;;;;;;6250837;23;20223;-75
2023/08/04 08:13:38;;;;;;;8.90;8.50;;;19.60;25.90;;;;;;6224322;23;20374;-77
2023/08/04 08:16:11;;;;;;;9.43;8.90;;;19.70;25.40;;;;;;6249608;22;20221;-76
2023/08/04 08:18:36;;;;;;;9.70;9.30;;;19.60;25.40;;;;;;6249487;23;20378;-77
2023/08/04 08:21:07;;;;;;;10.23;9.73;;;19.60;26.00;;;;;;6248362;23;20394;-77
2023/08/04 08:23:34;;;;;;;11.03;10.30;;;19.70;26.20;;;;;;6251217;23;20246;-77
2023/08/04 08:26:00;;;;;;;10.37;9.97;;;19.70;26.20;;;;;;6223596;23;20418;-78
2023/08/04 08:28:25;;;;;;;10.90;10.50;;;19.70;25.60;;;;;;6250733;23;20722;-77
2023/08/04 08:30:51;;;;;;;10.40;9.90;;;19.70;26.10;;;;;;6223878;23;20152;-77
2023/08/04 08:33:16;;;;;;;10.60;9.77;;;19.70;26.10;;;;;;6252101;23;20152;-77
2023/08/04 08:35:42;;;;;;;11.17;10.50;;;19.80;26.30;;;;;;6252146;22;20167;-76
2023/08/04 08:38:07;;;;;;;10.40;10.00;;;19.80;26.00;;;;;;6252437;23;20147;-78
2023/08/04 08:40:33;;;;;;;10.90;10.30;;;19.80;25.90;;;;;;6253936;23;20158;-77
2023/08/04 08:42:59;;;;;;;10.43;10.13;;;19.80;25.80;;;;;;6226212;23;20183;-77
2023/08/04 08:45:28;;;;;;;11.13;10.50;;;19.90;25.80;;;;;;6252660;22;20246;-79
2023/08/04 08:47:55;;;;;;;10.60;10.20;;;19.90;25.60;;;;;;6225848;23;20234;-76
2023/08/04 08:50:23;;;;;;;10.47;10.00;;;19.90;25.60;;;;;;6226167;23;20834;-79
2023/08/04 08:53:03;;;;;;;9.80;9.50;;;20.00;25.60;;;;;;6252004;23;20379;-77
2023/08/04 08:55:30;;;;;;;10.07;9.70;;;20.00;25.30;;;;;;6253088;22;20840;-77
2023/08/04 08:57:58;;;;;;;10.13;9.70;;;20.00;25.00;;;;;;6253030;23;20374;-78
2023/08/04 09:00:24;;;;;;;9.37;8.97;;;20.10;25.30;;;;;;6226688;23;20386;-79
2023/08/04 09:02:50;;;;;;;10.07;9.67;;;20.10;25.30;;;;;;6224077;23;20418;-79
2023/08/04 09:05:16;;;;;;;10.40;10.00;;;20.10;25.20;;;;;;6250909;22;20169;-78
2023/08/04 09:07:42;;;;;;;9.43;9.00;;;20.10;25.20;;;;;;6252154;23;20764;-78
2023/08/04 09:10:08;;;;;;;10.47;9.97;;;20.10;25.10;;;;;;6252154;23;20374;-78
2023/08/04 09:12:35;;;;;;;10.47;10.07;;;20.10;25.30;;;;;;6250796;23;20148;-79
2023/08/04 09:15:03;;;;;;;10.60;10.20;;;20.10;24.90;;;;;;6223402;23;20462;-79
2023/08/04 09:17:35;;;;;;;9.83;9.53;;;20.20;25.00;;;;;;6250707;23;20362;-78
2023/08/04 09:20:03;;;;;;;10.30;9.90;;;20.20;25.10;;;;;;6221801;23;20749;-77
2023/08/04 09:22:31;;;;;;;9.80;9.40;;;20.30;25.60;;;;;;6250642;23;20457;-78
2023/08/04 09:25:01;;;;;;;10.50;9.80;;;20.30;25.50;;;;;;6249101;22;20775;-78
2023/08/04 09:27:28;;;;;;;10.07;9.60;;;20.30;25.30;;;;;;6223005;23;20383;-79
2023/08/04 09:29:59;;;;;;;12.90;12.10;;;20.30;25.00;;;;;;6251698;23;20432;-79
2023/08/04 09:32:24;;;;;;;9.93;9.50;;;20.30;24.90;;;;;;6249007;23;20370;-78
2023/08/04 09:35:01;;;;;;;10.83;9.93;;;20.30;25.20;;;;;;6222240;23;20406;-77
2023/08/04 09:37:27;;;;;;;11.53;10.80;;;20.30;25.10;;;;;;6250074;23;20162;-78
2023/08/04 09:39:53;;;;;;;10.40;9.70;;;20.20;25.30;;;;;;6250544;23;20733;-79
2023/08/04 09:42:21;;;;;;;9.80;9.40;;;20.30;25.40;;;;;;6250839;23;20355;-78
2023/08/04 09:44:54;;;;;;;9.90;9.40;;;20.20;25.40;;;;;;6248089;22;20171;-79
2023/08/04 09:47:27;;;;;;;11.00;10.50;;;20.20;25.60;;;;;;6249093;23;20342;-78
2023/08/04 09:49:53;;;;;;;10.30;9.80;;;20.20;25.40;;;;;;6222141;23;20915;-78
2023/08/04 09:52:21;;;;;;;11.03;10.23;;;20.20;25.40;;;;;;6222897;23;20378;-78
2023/08/04 09:54:47;;;;;;;9.43;9.03;;;20.20;25.20;;;;;;6223076;23;20398;-78
2023/08/04 09:57:19;;;;;;;11.57;10.60;;;20.20;25.20;;;;;;6252946;23;20369;-77
2023/08/04 09:59:46;;;;;;;10.90;10.20;;;20.20;25.30;;;;;;6257916;23;20346;-78
2023/08/04 10:02:13;;;;;;;10.10;9.40;;;20.30;25.30;;;;;;6258363;23;20369;-78
2023/08/04 10:04:39;;;;;;;9.70;9.20;;;20.20;25.50;;;;;;6253623;22;20421;-78
2023/08/04 10:07:07;;;;;;;9.50;9.20;;;20.30;25.80;;;;;;6251096;23;20449;-79
2023/08/04 10:09:34;;;;;;;9.60;9.17;;;20.30;26.10;;;;;;6224268;23;20385;-78
2023/08/04 10:12:00;;;;;;;9.60;9.10;;;20.30;26.10;;;;;;6251078;23;20402;-79
2023/08/04 10:14:26;;;;;;;9.67;9.27;;;20.30;26.20;;;;;;6250867;22;20378;-78
2023/08/04 10:16:53;;;;;;;9.07;8.77;;;20.20;26.20;;;;;;6223959;23;20393;-78
2023/08/04 10:19:19;;;;;;;9.60;9.20;;;20.20;26.70;;;;;;6252444;23;20159;-78
2023/08/04 10:21:44;;;;;;;9.17;8.77;;;20.20;26.70;;;;;;6251511;23;20390;-78
2023/08/04 10:24:13;;;;;;;9.37;9.00;;;20.10;27.00;;;;;;6251216;23;20545;-78
2023/08/04 10:26:47;;;;;;;9.37;8.97;;;20.10;27.50;;;;;;6250774;22;20167;-79
2023/08/04 10:29:13;;;;;;;8.83;8.53;;;20.10;27.80;;;;;;6251813;23;20409;-78
2023/08/04 10:31:48;;;;;;;8.73;8.40;;;20.00;28.00;;;;;;6223974;23;20385;-78
2023/08/04 10:34:19;;;;;;;9.23;8.83;;;20.00;28.20;;;;;;6252741;23;20509;-79
2023/08/04 10:37:06;;;;;;;9.17;8.87;;;20.00;28.50;;;;;;6254618;23;20858;-78
2023/08/04 10:39:40;;;;;;;9.27;8.97;;;19.90;28.80;;;;;;6224000;23;20723;-78
2023/08/04 10:42:12;;;;;;;9.50;9.10;;;20.00;29.60;;;;;;6224036;23;20373;-78
2023/08/04 10:44:52;;;;;;;8.67;8.27;;;20.00;30.00;;;;;;6251275;22;20464;-78
2023/08/04 10:47:42;;;;;;;9.30;8.90;;;20.00;30.50;;;;;;6252108;23;20850;-78
2023/08/04 10:50:08;;;;;;;9.53;9.07;;;20.00;31.10;;;;;;6251836;23;20371;-78
2023/08/04 10:52:35;;;;;;;9.20;8.90;;;19.90;31.10;;;;;;6251171;23;20528;-79
2023/08/04 10:55:02;;;;;;;9.20;8.90;;;20.00;31.10;;;;;;6250653;22;20302;-77
2023/08/04 10:57:31;;;;;;;8.87;8.57;;;20.00;30.00;;;;;;6223608;23;20378;-78
2023/08/04 10:59:57;;;;;;;8.80;8.40;;;20.00;30.20;;;;;;6249235;23;20366;-79
2023/08/04 11:02:25;;;;;;;8.80;8.40;;;19.90;29.90;;;;;;6222993;23;20862;-78
2023/08/04 11:04:52;;;;;;;7.90;7.60;;;19.90;29.90;;;;;;6250000;22;20394;-79
2023/08/04 11:07:19;;;;;;;8.70;8.30;;;20.00;30.20;;;;;;6251174;23;20367;-79
2023/08/04 11:09:45;;;;;;;7.93;7.60;;;19.90;30.30;;;;;;6223886;23;20382;-79
2023/08/04 11:12:11;;;;;;;8.57;8.27;;;19.90;30.30;;;;;;6249661;23;20378;-79
2023/08/04 11:14:40;;;;;;;8.77;8.30;;;19.90;29.90;;;;;;6249379;22;20476;-79
2023/08/04 11:17:20;;;;;;;7.90;7.60;;;20.00;30.00;;;;;;6223017;23;20386;-79
2023/08/04 11:19:48;;;;;;;8.57;8.17;;;20.00;30.30;;;;;;6222941;23;20382;-79
2023/08/04 11:22:19;;;;;;;9.27;8.80;;;19.90;31.40;;;;;;6222883;23;20401;-78
2023/08/04 11:24:45;;;;;;;9.27;8.87;;;19.90;32.20;;;;;;6224168;23;20430;-80
2023/08/04 11:27:12;;;;;;;8.50;8.10;;;19.90;31.60;;;;;;6224676;23;20442;-79
2023/08/04 11:29:38;;;;;;;9.07;8.60;;;19.90;31.30;;;;;;6229555;23;20152;-77
2023/08/04 11:32:21;;;;;;;9.23;8.40;;;19.90;31.40;;;;;;6256310;23;20424;-78
2023/08/04 11:34:49;;;;;;;8.00;7.70;;;19.90;32.20;;;;;;6226719;23;20219;-79
2023/08/04 11:37:16;;;;;;;8.70;8.30;;;19.80;32.30;;;;;;6252122;23;20830;-79
2023/08/04 11:39:42;;;;;;;8.50;8.20;;;19.90;32.90;;;;;;6253021;23;20830;-79
2023/08/04 11:42:12;;;;;;;8.67;8.20;;;19.90;32.40;;;;;;6226540;23;20390;-79
2023/08/04 11:44:44;;;;;;;8.60;8.23;;;19.80;32.60;;;;;;6253566;22;20433;-80
2023/08/04 11:47:11;;;;;;;8.00;7.70;;;19.80;32.60;;;;;;6224364;23;20773;-79
2023/08/04 11:49:39;;;;;;;8.37;8.07;;;19.80;33.00;;;;;;6250209;23;20389;-78
2023/08/04 11:52:09;;;;;;;9.77;7.67;;;19.80;33.30;;;;;;6222541;23;20402;-78
2023/08/04 11:54:34;;;;;;;7.97;7.57;;;19.70;33.30;;;;;;6249298;22;20424;-76
2023/08/04 11:57:00;;;;;;;8.83;8.43;;;19.70;33.40;;;;;;6217573;23;20414;-76
2023/08/04 11:59:25;;;;;;;8.03;7.80;;;19.70;33.70;;;;;;6217568;23;20182;-75
2023/08/04 12:02:05;;;;;;;8.50;7.90;;;19.70;33.60;;;;;;6244540;23;20193;-75
2023/08/04 12:04:30;;;;;;;8.50;8.00;;;19.70;33.80;;;;;;6243751;22;20167;-75
2023/08/04 12:07:01;;;;;;;8.30;8.00;;;19.70;34.20;;;;;;6244359;23;20861;-75
2023/08/04 12:09:27;;;;;;;8.60;8.30;;;19.80;34.40;;;;;;6217470;23;20143;-75
2023/08/04 12:11:52;;;;;;;7.97;7.30;;;19.80;34.50;;;;;;6243746;23;20760;-75
2023/08/04 12:14:20;;;;;;;8.43;8.03;;;19.70;35.30;;;;;;6244220;22;20378;-75
2023/08/04 12:16:55;;;;;;;8.20;7.80;;;19.70;35.70;;;;;;6216647;23;20506;-76
2023/08/04 12:19:23;;;;;;;8.20;7.80;;;19.70;36.00;;;;;;6244071;23;20381;-75
2023/08/04 12:21:54;;;;;;;8.53;8.23;;;19.70;36.50;;;;;;6244045;23;20390;-75
2023/08/04 12:24:20;;;;;;;8.10;7.80;;;19.70;36.60;;;;;;6244256;22;20463;-76
2023/08/04 12:26:46;;;;;;;7.87;7.67;;;19.60;35.80;;;;;;6243733;23;20375;-76
2023/08/04 12:29:12;;;;;;;7.10;6.90;;;19.60;36.60;;;;;;6244098;23;20378;-75
2023/08/04 12:31:38;;;;;;;8.50;8.10;;;19.60;36.60;;;;;;6244290;23;20150;-76
2023/08/04 12:34:09;;;;;;;7.30;7.00;;;19.60;37.10;;;;;;6244004;23;20465;-75
2023/08/04 12:36:35;;;;;;;7.63;7.23;;;19.60;38.00;;;;;;6243933;22;20390;-75
2023/08/04 12:39:03;;;;;;;7.00;6.70;;;19.60;39.10;;;;;;6216933;23;20440;-75
2023/08/04 12:41:30;;;;;;;7.20;6.90;;;19.60;40.60;;;;;;6244152;23;20151;-75
2023/08/04 12:43:55;;;;;;;6.80;6.60;;;19.70;40.00;;;;;;6243930;23;20502;-76
2023/08/04 12:46:21;;;;;;;6.80;6.60;;;19.70;39.00;;;;;;6244078;22;20422;-75
2023/08/04 12:48:46;;;;;;;7.30;7.00;;;19.70;38.30;;;;;;6216868;23;20582;-76
2023/08/04 12:51:12;;;;;;;6.57;6.37;;;19.80;37.90;;;;;;6217336;23;20603;-75
2023/08/04 12:53:37;;;;;;;7.27;6.97;;;19.80;38.00;;;;;;6243827;23;20151;-76
2023/08/04 12:56:03;;;;;;;7.77;7.47;;;19.80;37.80;;;;;;6217092;23;20175;-76
2023/08/04 12:58:28;;;;;;;7.10;6.90;;;19.90;38.30;;;;;;6243942;23;20155;-76
2023/08/04 13:00:54;;;;;;;7.00;6.80;;;19.90;38.30;;;;;;6241558;23;20186;-75
2023/08/04 13:03:19;;;;;;;7.30;7.10;;;19.90;36.50;;;;;;6243933;23;20167;-75
2023/08/04 13:05:45;;;;;;;8.20;7.60;;;19.90;35.60;;;;;;6243673;22;20179;-73
2023/08/04 13:08:10;;;;;;;7.27;6.97;;;19.90;35.80;;;;;;6243418;23;20588;-73
2023/08/04 13:10:36;;;;;;;7.60;7.40;;;20.00;37.10;;;;;;6244139;23;20151;-73
2023/08/04 13:13:01;;;;;;;7.77;7.47;;;20.00;34.90;;;;;;6244006;23;20552;-74
2023/08/04 13:15:28;;;;;;;7.60;7.30;;;20.10;35.20;;;;;;6244060;22;20181;-75
2023/08/04 13:17:54;;;;;;;6.80;6.60;;;20.20;34.50;;;;;;6243639;23;20147;-76
2023/08/04 13:20:19;;;;;;;7.70;7.40;;;20.20;35.40;;;;;;6243921;23;20409;-74
2023/08/04 13:22:48;;;;;;;8.50;8.00;;;20.20;32.10;;;;;;6243879;23;20489;-73
2023/08/04 13:25:13;;;;;;;8.57;8.00;;;20.20;31.60;;;;;;6216906;23;20171;-75
2023/08/04 13:27:39;;;;;;;7.73;7.40;;;20.10;32.40;;;;;;6244362;23;20863;-75
2023/08/04 13:30:07;;;;;;;7.80;7.60;;;20.10;31.90;;;;;;6245625;23;20147;-75
2023/08/04 13:32:33;;;;;;;8.17;7.67;;;20.10;32.10;;;;;;6245698;23;20148;-74
2023/08/04 13:34:59;;;;;;;7.80;7.50;;;20.20;30.00;;;;;;6245520;22;20894;-76
2023/08/04 13:37:24;;;;;;;8.20;7.90;;;20.10;29.60;;;;;;6246594;23;20143;-76
2023/08/04 13:39:50;;;;;;;8.17;7.90;;;20.10;29.10;;;;;;6217642;23;20155;-77
2023/08/04 13:42:15;;;;;;;7.60;7.30;;;20.20;28.90;;;;;;6243834;23;20485;-76
2023/08/04 13:44:41;;;;;;;7.77;7.50;;;20.20;29.00;;;;;;6244556;22;20232;-75
2023/08/04 13:47:06;;;;;;;8.00;7.70;;;20.20;29.40;;;;;;6246345;23;20158;-75
2023/08/04 13:49:32;;;;;;;8.90;8.60;;;20.10;30.00;;;;;;6245766;23;20143;-77
2023/08/04 13:51:57;;;;;;;8.37;7.97;;;20.10;31.50;;;;;;6246012;23;20155;-75
2023/08/04 13:54:23;;;;;;;7.80;7.40;;;20.10;32.30;;;;;;6246378;22;20553;-76
2023/08/04 13:56:48;;;;;;;8.70;8.37;;;20.00;32.70;;;;;;6219078;23;20489;-76
2023/08/04 13:59:14;;;;;;;9.07;8.53;;;20.00;33.50;;;;;;6245831;23;20231;-76
2023/08/04 14:01:39;;;;;;;8.60;8.30;;;19.90;34.00;;;;;;6245996;23;20154;-76
2023/08/04 14:04:05;;;;;;;8.90;8.50;;;19.90;35.00;;;;;;6245833;23;20198;-76
2023/08/04 14:06:34;;;;;;;8.60;8.30;;;19.90;34.40;;;;;;6245941;22;20174;-76
2023/08/04 14:08:59;;;;;;;9.10;8.80;;;19.90;34.50;;;;;;6221774;23;20599;-76
2023/08/04 14:11:25;;;;;;;8.73;8.43;;;19.90;33.40;;;;;;6251091;23;20381;-75
2023/08/04 14:13:51;;;;;;;8.67;8.27;;;19.90;33.30;;;;;;6246792;23;20160;-76
2023/08/04 14:16:16;;;;;;;8.73;8.43;;;19.90;34.30;;;;;;6218907;23;20774;-76
2023/08/04 14:18:42;;;;;;;8.50;8.10;;;19.90;33.70;;;;;;6245714;23;20539;-76
2023/08/04 14:21:08;;;;;;;8.00;7.70;;;19.90;34.30;;;;;;6245722;23;20496;-75
2023/08/04 14:23:33;;;;;;;8.17;7.97;;;19.90;34.00;;;;;;6218958;23;20176;-76
2023/08/04 14:26:00;;;;;;;8.67;8.37;;;19.90;33.50;;;;;;6245357;22;20171;-75
2023/08/04 14:28:25;;;;;;;7.97;7.70;;;19.80;33.60;;;;;;6245307;23;20136;-75
2023/08/04 14:30:51;;;;;;;8.30;8.00;;;19.90;33.60;;;;;;6244665;23;20757;-75
2023/08/04 14:33:17;;;;;;;8.40;8.10;;;19.90;34.00;;;;;;6243377;23;20178;-75
2023/08/04 14:35:42;;;;;;;9.37;9.07;;;19.90;33.20;;;;;;6243441;22;20172;-76
2023/08/04 14:38:08;;;;;;;9.37;9.00;;;20.00;33.00;;;;;;6220514;23;20571;-75
2023/08/04 14:40:34;;;;;;;9.83;9.33;;;20.00;32.50;;;;;;6245070;23;20179;-75
2023/08/04 14:42:59;;;;;;;8.93;8.53;;;20.00;32.40;;;;;;6218286;23;20175;-75
2023/08/04 14:45:25;;;;;;;8.70;8.40;;;20.00;32.90;;;;;;6218385;23;20171;-74
2023/08/04 14:47:53;;;;;;;9.03;8.73;;;20.00;32.80;;;;;;6245381;23;20151;-74
2023/08/04 14:50:19;;;;;;;8.43;8.03;;;20.00;32.10;;;;;;6245333;23;20205;-73
2023/08/04 14:52:45;;;;;;;9.17;8.77;;;20.00;32.10;;;;;;6217882;23;20758;-74
2023/08/04 14:55:10;;;;;;;8.63;8.33;;;20.00;32.70;;;;;;6245636;22;20251;-74
2023/08/04 14:57:36;;;;;;;8.57;8.27;;;20.00;32.50;;;;;;6218575;23;20173;-75
2023/08/04 15:00:03;;;;;;;7.60;7.40;;;20.00;32.40;;;;;;6244906;23;20495;-74
2023/08/04 15:02:28;;;;;;;8.23;7.87;;;20.10;32.10;;;;;;6244443;23;20154;-76
2023/08/04 15:04:54;;;;;;;8.93;8.63;;;20.10;31.60;;;;;;6244531;22;20429;-74
2023/08/04 15:07:21;;;;;;;8.70;8.37;;;20.00;32.00;;;;;;6245080;23;20203;-74
2023/08/04 15:09:50;;;;;;;8.13;7.83;;;20.10;31.40;;;;;;6244621;23;20138;-74
2023/08/04 15:12:16;;;;;;;9.00;8.60;;;20.10;31.00;;;;;;6244935;23;20449;-74
2023/08/04 15:14:43;;;;;;;8.90;8.60;;;20.10;30.60;;;;;;6244724;22;20422;-75
2023/08/04 15:17:09;;;;;;;9.40;9.10;;;20.10;30.50;;;;;;6244488;23;20378;-74
2023/08/04 15:19:34;;;;;;;8.67;8.30;;;20.10;31.20;;;;;;6217273;23;20948;-75
2023/08/04 15:22:00;;;;;;;7.90;7.60;;;20.10;31.70;;;;;;6244806;23;20905;-74
2023/08/04 15:24:26;;;;;;;8.80;8.47;;;20.10;32.60;;;;;;6244784;22;20213;-74
2023/08/04 15:26:54;;;;;;;8.53;8.13;;;20.00;33.00;;;;;;6244811;23;20367;-75
2023/08/04 15:29:20;;;;;;;8.00;7.70;;;20.10;33.10;;;;;;6244718;23;20154;-74
2023/08/04 15:31:45;;;;;;;8.23;7.87;;;20.00;33.10;;;;;;6218016;23;20382;-75
2023/08/04 15:34:11;;;;;;;8.17;7.73;;;20.00;32.90;;;;;;6244671;23;20148;-74
2023/08/04 15:36:37;;;;;;;8.43;8.03;;;20.00;32.90;;;;;;6244623;22;20176;-74
2023/08/04 15:39:03;;;;;;;8.47;8.07;;;20.00;32.90;;;;;;6244362;23;20222;-74
2023/08/04 15:41:28;;;;;;;8.90;8.50;;;20.00;32.40;;;;;;6244403;23;20398;-74
2023/08/04 15:43:54;;;;;;;8.07;7.77;;;19.90;32.90;;;;;;6244390;23;20206;-75
2023/08/04 15:46:19;;;;;;;9.47;9.07;;;20.00;32.80;;;;;;6244471;22;20266;-74
2023/08/04 15:48:45;;;;;;;10.10;9.53;;;20.00;32.70;;;;;;6244082;23;20215;-75
2023/08/04 15:51:11;;;;;;;9.40;9.00;;;20.10;31.40;;;;;;6212200;23;20147;-75
2023/08/04 15:53:37;;;;;;;9.60;9.20;;;20.10;31.60;;;;;;6243821;23;20158;-75
2023/08/04 15:56:02;;;;;;;10.70;10.30;;;20.10;31.40;;;;;;6243671;22;20194;-75
2023/08/04 15:58:28;;;;;;;9.40;9.00;;;20.00;32.00;;;;;;6216689;23;20382;-74
2023/08/04 16:00:53;;;;;;;9.30;8.90;;;20.00;32.00;;;;;;6242798;23;20438;-75
2023/08/04 16:03:21;;;;;;;9.57;9.07;;;20.10;32.10;;;;;;6243088;23;20167;-80
2023/08/04 16:05:47;;;;;;;10.37;9.87;;;20.10;31.90;;;;;;6244034;22;20619;-74
2023/08/04 16:08:12;;;;;;;10.50;10.00;;;20.10;32.00;;;;;;6243662;23;20366;-74
2023/08/04 16:10:38;;;;;;;10.00;9.43;;;20.10;32.30;;;;;;6243641;23;20158;-75
2023/08/04 16:13:03;;;;;;;9.80;9.30;;;20.20;33.50;;;;;;6243791;23;20140;-74
2023/08/04 16:15:30;;;;;;;10.07;9.53;;;20.20;32.80;;;;;;6243428;22;20245;-74
2023/08/04 16:17:55;;;;;;;9.90;9.50;;;20.10;33.00;;;;;;6216615;23;20495;-75
2023/08/04 16:20:21;;;;;;;10.30;9.90;;;20.10;33.50;;;;;;6241886;23;20484;-75
2023/08/04 16:22:46;;;;;;;9.07;8.67;;;20.10;33.40;;;;;;6243644;23;20227;-74
2023/08/04 16:25:12;;;;;;;8.97;8.37;;;20.10;33.00;;;;;;6217269;23;20171;-75
2023/08/04 16:27:38;;;;;;;8.60;8.30;;;20.10;33.40;;;;;;6244238;23;20215;-74
2023/08/04 16:30:04;;;;;;;9.30;8.90;;;20.10;32.60;;;;;;6243184;23;20167;-75
2023/08/04 16:32:29;;;;;;;10.57;10.07;;;20.10;33.00;;;;;;6243845;23;20516;-74
2023/08/04 16:34:56;;;;;;;9.47;9.07;;;20.10;33.10;;;;;;6243447;22;20804;-78
2023/08/04 16:37:21;;;;;;;8.50;8.20;;;20.10;33.30;;;;;;6217146;23;20229;-77
2023/08/04 16:39:48;;;;;;;9.20;8.70;;;20.10;32.00;;;;;;6242778;23;20370;-75
2023/08/04 16:42:13;;;;;;;8.60;8.30;;;20.10;30.30;;;;;;6217154;23;20235;-77
2023/08/04 16:44:39;;;;;;;7.57;7.37;;;20.10;30.90;;;;;;6243563;22;20456;-75
2023/08/04 16:47:04;;;;;;;8.43;8.13;;;20.10;31.40;;;;;;6243792;23;20151;-74
2023/08/04 16:49:30;;;;;;;8.77;8.47;;;20.10;31.70;;;;;;6243275;23;20167;-75
2023/08/04 16:51:55;;;;;;;8.70;8.40;;;20.00;31.50;;;;;;6216776;23;20158;-75
2023/08/04 16:54:21;;;;;;;8.20;7.90;;;19.90;31.90;;;;;;6243930;22;20211;-76
2023/08/04 16:56:47;;;;;;;8.37;8.10;;;19.90;33.70;;;;;;6243875;23;20269;-75
2023/08/04 16:59:12;;;;;;;7.97;7.70;;;19.90;32.90;;;;;;6242805;23;20162;-75
2023/08/04 17:01:38;;;;;;;8.60;8.30;;;19.90;32.50;;;;;;6242852;23;20599;-76
2023/08/04 17:04:03;;;;;;;8.70;8.30;;;19.90;31.80;;;;;;6243442;23;20382;-75
2023/08/04 17:06:29;;;;;;;7.90;7.70;;;19.90;31.90;;;;;;6243550;22;20210;-74
2023/08/04 17:08:54;;;;;;;8.90;8.53;;;19.80;32.30;;;;;;6242938;23;20144;-75
2023/08/04 17:11:21;;;;;;;8.23;7.80;;;19.80;32.40;;;;;;6243562;23;20148;-75
2023/08/04 17:13:46;;;;;;;8.70;8.30;;;19.70;32.70;;;;;;6216464;23;20518;-77
2023/08/04 17:16:17;;;;;;;9.00;8.70;;;19.70;32.60;;;;;;6243579;22;20394;-75
2023/08/04 17:18:43;;;;;;;9.73;9.33;;;19.70;33.00;;;;;;6243341;23;20155;-75
2023/08/04 17:21:09;;;;;;;9.33;9.03;;;19.70;33.00;;;;;;6243286;23;20390;-76
2023/08/04 17:23:35;;;;;;;10.13;9.73;;;19.50;33.40;;;;;;6243499;23;20985;-75
2023/08/04 17:26:00;;;;;;;9.40;9.10;;;19.50;33.90;;;;;;6243460;22;20405;-75
2023/08/04 17:28:26;;;;;;;9.80;9.40;;;19.40;34.40;;;;;;6243224;23;20175;-75
2023/08/04 17:31:01;;;;;;;9.83;9.43;;;19.40;34.80;;;;;;6242487;23;20568;-76
2023/08/04 17:33:27;;;;;;;9.57;8.97;;;19.40;34.60;;;;;;6243224;23;20633;-76
2023/08/04 17:35:54;;;;;;;9.97;9.37;;;19.30;34.80;;;;;;6243337;22;20390;-75
2023/08/04 17:38:19;;;;;;;9.07;8.60;;;19.30;35.00;;;;;;6243634;23;20908;-75
2023/08/04 17:40:45;;;;;;;9.03;8.73;;;19.30;34.50;;;;;;6243707;23;20382;-76
2023/08/04 17:43:10;;;;;;;9.30;9.00;;;19.20;34.40;;;;;;6243662;23;20179;-75
2023/08/04 17:45:36;;;;;;;9.10;8.70;;;19.10;34.30;;;;;;6243647;22;20199;-75
2023/08/04 17:48:01;;;;;;;8.47;8.17;;;19.10;34.70;;;;;;6243541;23;20143;-76
2023/08/04 17:50:27;;;;;;;8.20;7.70;;;19.10;34.30;;;;;;6243562;23;20643;-75
2023/08/04 17:52:52;;;;;;;9.77;9.27;;;19.10;33.50;;;;;;6244095;23;20151;-75
2023/08/04 17:55:18;;;;;;;8.73;8.17;;;19.10;33.10;;;;;;6222885;22;20202;-76
2023/08/04 17:57:43;;;;;;;9.60;9.03;;;19.10;33.10;;;;;;6248186;22;20151;-76
2023/08/04 18:00:09;;;;;;;8.83;8.53;;;19.10;33.10;;;;;;6248430;22;20157;-76
2023/08/04 18:02:35;;;;;;;8.13;7.83;;;19.10;32.80;;;;;;6276411;22;20613;-77
2023/08/04 18:05:01;;;;;;;8.80;8.50;;;19.00;33.10;;;;;;6245832;22;20425;-77
2023/08/04 18:07:29;;;;;;;8.53;8.13;;;19.00;33.00;;;;;;6248682;23;20140;-77
2023/08/04 18:09:54;;;;;;;8.40;8.00;;;19.00;32.70;;;;;;6246792;23;20144;-75
2023/08/04 18:12:20;;;;;;;8.00;7.53;;;19.00;33.20;;;;;;6245144;23;20457;-75
2023/08/04 18:14:45;;;;;;;8.40;8.10;;;19.10;32.90;;;;;;6219654;22;20163;-76
2023/08/04 18:17:11;;;;;;;8.90;8.50;;;19.10;33.70;;;;;;6247263;23;20159;-75
2023/08/04 18:19:37;;;;;;;8.40;8.10;;;19.00;32.90;;;;;;6249285;23;20173;-76
2023/08/04 18:22:02;;;;;;;8.57;8.10;;;19.00;33.00;;;;;;6248091;23;20621;-76
2023/08/04 18:24:28;;;;;;;8.50;8.10;;;19.00;33.60;;;;;;6251762;23;20183;-76
2023/08/04 18:26:53;;;;;;;8.20;7.90;;;19.10;33.00;;;;;;6248155;22;20607;-77
2023/08/04 18:29:19;;;;;;;8.00;7.70;;;19.10;33.60;;;;;;6250988;23;20148;-76
2023/08/04 18:31:44;;;;;;;8.17;7.87;;;19.10;33.70;;;;;;6226137;23;20163;-76
2023/08/04 18:34:10;;;;;;;8.50;8.20;;;19.00;33.90;;;;;;6225353;23;20174;-76
2023/08/04 18:36:36;;;;;;;9.03;8.63;;;19.00;33.60;;;;;;6228832;23;20171;-76
2023/08/04 18:39:01;;;;;;;8.53;8.13;;;19.00;33.90;;;;;;6256694;23;20148;-75
2023/08/04 18:41:28;;;;;;;9.07;8.67;;;19.00;33.90;;;;;;6226698;23;20201;-76
2023/08/04 18:43:54;;;;;;;8.50;8.20;;;19.00;34.10;;;;;;6246837;23;20199;-76
2023/08/04 18:46:20;;;;;;;8.90;8.60;;;19.00;34.20;;;;;;6247119;22;20390;-76
2023/08/04 18:48:46;;;;;;;8.67;8.27;;;19.00;34.20;;;;;;6247146;23;20462;-76
2023/08/04 18:51:11;;;;;;;9.07;8.67;;;19.10;33.80;;;;;;6235354;23;20387;-75
2023/08/04 18:53:39;;;;;;;9.00;8.60;;;19.10;34.20;;;;;;6267950;23;20183;-75
2023/08/04 18:56:04;;;;;;;8.60;8.30;;;19.10;34.00;;;;;;6269409;22;20188;-77
2023/08/04 18:58:30;;;;;;;9.23;8.83;;;19.00;33.90;;;;;;6270725;23;20873;-77
2023/08/04 19:00:55;;;;;;;9.00;8.60;;;19.00;34.20;;;;;;6269142;23;20177;-74
2023/08/04 19:03:21;;;;;;;9.20;8.70;;;19.00;34.30;;;;;;6243114;23;20191;-75
2023/08/04 19:05:46;;;;;;;9.33;8.93;;;19.10;34.50;;;;;;6257484;22;20237;-76
2023/08/04 19:08:12;;;;;;;9.40;8.80;;;19.10;34.50;;;;;;6256963;23;20148;-76
2023/08/04 19:10:38;;;;;;;9.33;8.83;;;19.00;34.80;;;;;;6257037;23;20569;-77
2023/08/04 19:13:03;;;;;;;9.60;9.10;;;19.00;34.40;;;;;;6264217;23;20148;-79
2023/08/04 19:15:29;;;;;;;10.90;8.80;;;19.00;34.70;;;;;;6224055;23;20172;-76
2023/08/04 19:17:55;;;;;;;9.70;9.20;;;18.90;35.10;;;;;;6245462;23;20152;-76
2023/08/04 19:20:21;;;;;;;9.10;8.60;;;18.90;35.40;;;;;;6246576;23;20160;-76
2023/08/04 19:22:46;;;;;;;10.10;9.60;;;18.90;35.50;;;;;;6219698;23;20405;-75
2023/08/04 19:25:15;;;;;;;10.30;9.80;;;18.90;35.40;;;;;;6246519;22;20673;-75
2023/08/04 19:27:40;;;;;;;10.60;10.10;;;18.90;35.60;;;;;;6219795;23;20534;-77
2023/08/04 19:30:06;;;;;;;9.57;9.00;;;18.90;36.10;;;;;;6246231;23;20362;-76
2023/08/04 19:32:32;;;;;;;10.60;9.93;;;18.90;35.70;;;;;;6247308;23;20147;-76
2023/08/04 19:34:58;;;;;;;10.87;10.00;;;18.90;36.10;;;;;;6222608;22;20470;-77
2023/08/04 19:37:23;;;;;;;10.43;9.80;;;18.90;36.10;;;;;;6249326;23;20162;-77
2023/08/04 19:39:49;;;;;;;10.97;10.37;;;18.90;36.20;;;;;;6251503;23;20229;-77
2023/08/04 19:42:15;;;;;;;10.83;10.23;;;18.90;37.60;;;;;;6255295;23;20155;-78
2023/08/04 19:44:40;;;;;;;12.20;11.43;;;18.90;37.30;;;;;;6256257;23;20449;-78
2023/08/04 19:47:10;;;;;;;11.17;10.50;;;18.90;37.20;;;;;;6231102;23;20171;-78
2023/08/04 19:49:36;;;;;;;11.57;10.87;;;18.90;37.20;;;;;;6254972;23;20233;-78
2023/08/04 19:52:02;;;;;;;11.77;11.07;;;18.90;37.20;;;;;;6250506;23;20382;-77
2023/08/04 19:54:29;;;;;;;12.03;11.30;;;18.90;37.10;;;;;;6248599;23;20166;-76
2023/08/04 19:56:55;;;;;;;11.77;11.13;;;18.90;37.60;;;;;;6243832;23;20963;-77
2023/08/04 19:59:21;;;;;;;11.70;10.80;;;18.80;38.40;;;;;;6251629;23;20383;-77